SILO ALERT LOG


Silo ID Alert Type Alert Message Silo Type Points Depth (mm) Strength Temperature (°C) Humidity (%) Height (mm) Volume (㎥) Weight (t) Flag Time
WJWJR05 Humidity 습도센서 측정값이 80% 초과 67 5750 2735 26.6 81.3 1980 223.933 141.57 0 2026-07-11 04:25:49.000
WJWJR01 Humidity 습도센서 측정값이 80% 초과 73 7500 1200 24.6 86.9 139 15.834 10.01 0 2026-07-11 03:25:59.000
WJWJR05 Humidity 습도센서 측정값이 80% 초과 66 5770 2695 26.7 81.3 1960 221.671 140.14 0 2026-07-11 03:25:48.000
WJWJR01 Humidity 습도센서 측정값이 80% 초과 75 7500 1212 24.7 86.6 139 15.834 10.01 0 2026-07-11 02:26:00.000
WJWJR05 Humidity 습도센서 측정값이 80% 초과 64 5770 2711 26.8 81.3 1960 221.671 140.14 0 2026-07-11 02:25:50.000
WJWJR01 Humidity 습도센서 측정값이 80% 초과 74 7520 1204 24.9 86.1 120 13.572 8.58 0 2026-07-11 01:25:58.000
WJWJR05 Humidity 습도센서 측정값이 80% 초과 66 5780 2713 26.9 81.2 1950 220.54 139.425 0 2026-07-11 01:25:51.000
WJWJR01 Humidity 습도센서 측정값이 80% 초과 75 7510 1232 25.1 85.6 129 14.703 9.295 0 2026-07-11 00:26:00.000
WJWJR05 Humidity 습도센서 측정값이 80% 초과 65 5760 2705 27.1 81.1 1970 222.802 140.855 0 2026-07-11 00:25:50.000
WJWJR01 Humidity 습도센서 측정값이 80% 초과 75 7490 1208 25.4 84.9 149 16.965 10.725 0 2026-07-10 23:25:59.000
WJWJR05 Humidity 습도센서 측정값이 80% 초과 68 5770 2695 27.3 80.9 1960 221.671 140.14 0 2026-07-10 23:25:46.000
WJWJR01 Humidity 습도센서 측정값이 80% 초과 75 7490 1224 25.6 84.1 149 16.965 10.725 0 2026-07-10 22:26:01.000
WJWJR05 Humidity 습도센서 측정값이 80% 초과 65 5780 2670 27.5 80.7 1950 220.54 139.425 0 2026-07-10 22:25:48.000
WJWJR01 Humidity 습도센서 측정값이 80% 초과 74 7530 1206 26 83.9 109 12.441 7.865 0 2026-07-10 21:25:59.000
WJWJR05 Humidity 습도센서 측정값이 80% 초과 65 5840 2648 27.8 80.3 1890 213.754 135.135 0 2026-07-10 21:25:47.000
WJWJR01 Humidity 습도센서 측정값이 80% 초과 76 7550 1223 26.5 84.9 89 10.179 6.435 0 2026-07-10 20:26:09.000
WJWJR01 Humidity 습도센서 측정값이 80% 초과 73 7510 1242 27 86 129 14.703 9.295 0 2026-07-10 19:25:58.000
WJWJR01 Humidity 습도센서 측정값이 80% 초과 72 7500 1201 27.5 88.9 139 15.834 10.01 0 2026-07-10 18:25:56.000
WJWJR01 Humidity 습도센서 측정값이 80% 초과 73 7530 1217 27.8 91.5 109 12.441 7.865 0 2026-07-10 17:26:01.000
WJWJR05 Humidity 습도센서 측정값이 80% 초과 64 4050 2361 28.5 81 3680 416.198 263.12 0 2026-07-10 17:25:49.000

[첫 페이지] [33] [34] [35] [36] 37 [38] [39] [40] [41] [마지막 페이지]